createdAt,value
2022-12-08T00:01:19.585Z,100245.19
2022-12-08T00:03:47.339Z,100242.47
2022-12-08T00:06:41.791Z,100261.66
2022-12-08T00:09:32.027Z,100271.34
2022-12-08T00:12:03.546Z,100261.00
2022-12-08T00:14:32.898Z,100262.31
2022-12-08T00:17:00.391Z,100258.97
2022-12-08T00:19:27.640Z,100263.69
2022-12-08T00:21:55.348Z,100241.56
2022-12-08T00:24:23.490Z,100249.38
2022-12-08T00:26:50.099Z,100225.78
2022-12-08T00:29:17.892Z,100216.59
2022-12-08T00:31:45.022Z,100240.84
2022-12-08T00:34:15.806Z,100231.56
2022-12-08T00:36:43.156Z,100234.34
2022-12-08T00:39:11.173Z,100203.56
2022-12-08T00:41:56.506Z,100241.38
2022-12-08T00:44:23.254Z,100214.19
2022-12-08T00:46:49.974Z,100244.66
2022-12-08T00:49:17.743Z,100235.84
2022-12-08T00:51:44.749Z,100215.91
2022-12-08T00:54:12.009Z,100225.09
2022-12-08T00:56:39.640Z,100213.09
2022-12-08T00:59:06.987Z,100201.53
2022-12-08T01:01:34.747Z,100179.06
2022-12-08T01:04:11.477Z,100189.16
2022-12-08T01:06:38.954Z,100193.75
2022-12-08T01:09:06.621Z,100201.53
2022-12-08T01:11:33.474Z,100209.75
2022-12-08T01:13:59.955Z,100197.03
2022-12-08T01:16:30.158Z,100195.41
2022-12-08T01:18:58.049Z,100217.75
2022-12-08T01:21:28.082Z,100215.44
2022-12-08T01:23:55.441Z,100181.53
2022-12-08T01:26:22.314Z,100178.91
2022-12-08T01:28:48.896Z,100212.53
2022-12-08T01:31:17.672Z,100212.50
2022-12-08T01:33:44.607Z,100214.50
2022-12-08T01:36:32.151Z,100213.22
2022-12-08T01:39:00.774Z,100214.44
2022-12-08T01:41:33.166Z,100204.81
2022-12-08T01:44:01.624Z,100224.38
2022-12-08T01:46:33.356Z,100207.28
2022-12-08T01:49:04.344Z,100216.94
2022-12-08T01:51:33.604Z,100169.00
2022-12-08T01:54:00.753Z,100171.66
2022-12-08T01:56:56.602Z,100215.34
2022-12-08T01:59:24.585Z,100186.66
2022-12-08T02:01:51.913Z,100206.78
2022-12-08T02:04:18.588Z,100197.72
2022-12-08T02:06:46.195Z,100192.81
2022-12-08T02:09:13.074Z,100208.78
2022-12-08T02:11:39.591Z,100201.56
2022-12-08T02:14:08.318Z,100203.25
2022-12-08T02:16:56.088Z,100162.81
2022-12-08T02:19:31.780Z,100197.63
2022-12-08T02:22:30.704Z,100160.00
2022-12-08T02:25:09.170Z,100152.94
2022-12-08T02:27:49.951Z,100148.66
2022-12-08T02:30:44.217Z,100193.56
2022-12-08T02:33:25.925Z,100186.69
2022-12-08T02:36:12.543Z,100175.78
2022-12-08T02:38:56.117Z,100171.09
2022-12-08T02:41:33.748Z,100170.53
2022-12-08T02:44:08.703Z,100167.78
2022-12-08T02:46:42.466Z,100161.44
2022-12-08T02:49:09.694Z,100154.72
2022-12-08T02:51:36.244Z,100146.78
2022-12-08T02:54:03.732Z,100139.28
2022-12-08T02:57:00.507Z,100135.28
2022-12-08T02:59:40.801Z,100139.59
2022-12-08T03:02:16.660Z,100139.25
2022-12-08T03:05:06.336Z,100117.78
2022-12-08T03:07:39.201Z,100121.63
2022-12-08T03:10:43.685Z,100125.06
2022-12-08T03:13:13.879Z,100120.00
2022-12-08T03:15:41.908Z,100115.28
2022-12-08T03:18:11.206Z,100080.28
2022-12-08T03:20:38.947Z,100114.31
2022-12-08T03:23:08.843Z,100095.59
2022-12-08T03:25:43.630Z,100106.06
2022-12-08T03:28:10.363Z,100111.00
2022-12-08T03:30:39.673Z,100110.72
2022-12-08T03:33:24.723Z,100102.03
2022-12-08T03:35:51.829Z,100102.28
2022-12-08T03:38:18.497Z,100098.41
2022-12-08T03:41:08.996Z,100066.59
2022-12-08T03:43:35.694Z,100071.56
2022-12-08T03:46:02.460Z,100070.09
2022-12-08T03:48:29.022Z,100036.25
2022-12-08T03:50:55.599Z,100079.47
2022-12-08T03:53:22.070Z,100068.72
2022-12-08T03:55:48.525Z,100070.94
2022-12-08T03:58:14.984Z,100064.50
2022-12-08T04:00:41.458Z,100037.22
2022-12-08T04:03:07.968Z,100042.09
2022-12-08T04:05:34.773Z,100059.34
2022-12-08T04:08:01.477Z,100055.34
2022-12-08T04:10:28.143Z,100030.66
2022-12-08T04:12:54.666Z,100009.53
2022-12-08T04:15:21.414Z,100045.69
2022-12-08T04:17:47.950Z,100028.66
2022-12-08T04:20:14.524Z,99982.75
2022-12-08T04:22:41.009Z,100045.44
2022-12-08T04:25:07.905Z,100047.09
2022-12-08T04:27:34.447Z,100043.09
2022-12-08T04:30:01.034Z,100039.09
2022-12-08T04:32:27.536Z,100017.06
2022-12-08T04:34:54.099Z,100033.78
2022-12-08T04:37:20.639Z,100036.31
2022-12-08T04:39:47.244Z,100028.75
2022-12-08T04:42:13.697Z,100006.53
2022-12-08T04:44:40.223Z,100032.84
2022-12-08T04:47:06.797Z,100003.56
2022-12-08T04:49:33.549Z,99991.63
2022-12-08T04:52:00.073Z,100026.56
2022-12-08T04:54:27.004Z,99984.66
2022-12-08T04:56:53.595Z,100026.56
2022-12-08T04:59:20.069Z,100030.31
2022-12-08T05:01:46.722Z,100028.44
2022-12-08T05:04:13.307Z,99999.09
2022-12-08T05:06:39.779Z,99981.94
2022-12-08T05:09:06.265Z,99986.47
2022-12-08T05:11:32.802Z,99992.13
2022-12-08T05:13:59.542Z,100019.19
2022-12-08T05:16:26.059Z,100025.00
2022-12-08T05:18:52.623Z,100023.50
2022-12-08T05:21:19.157Z,100023.38
2022-12-08T05:23:46.112Z,100013.78
2022-12-08T05:26:12.929Z,100004.88
2022-12-08T05:28:42.290Z,100006.97
2022-12-08T05:31:10.821Z,99956.03
2022-12-08T05:33:37.356Z,99991.94
2022-12-08T05:36:04.154Z,100005.09
2022-12-08T05:38:30.761Z,99969.13
2022-12-08T05:40:57.251Z,100002.69
2022-12-08T05:43:23.803Z,99960.47
2022-12-08T05:45:50.615Z,99985.69
2022-12-08T05:48:17.240Z,99985.75
2022-12-08T05:50:48.113Z,99980.13
2022-12-08T05:53:15.979Z,99975.84
2022-12-08T05:55:42.702Z,99978.03
2022-12-08T05:58:13.601Z,99994.00
2022-12-08T06:00:40.717Z,99962.97
2022-12-08T06:03:07.811Z,99979.94
2022-12-08T06:05:35.243Z,99941.56
2022-12-08T06:08:02.107Z,99985.75
2022-12-08T06:10:28.972Z,99982.94
2022-12-08T06:12:55.496Z,99970.41
2022-12-08T06:15:22.012Z,99982.88
2022-12-08T06:17:48.849Z,99976.59
2022-12-08T06:20:15.506Z,99978.84
2022-12-08T06:22:41.994Z,99971.44
2022-12-08T06:25:10.270Z,99980.16
2022-12-08T06:27:37.043Z,99977.28
2022-12-08T06:30:04.216Z,99947.47
2022-12-08T06:32:31.253Z,99925.34
2022-12-08T06:34:57.821Z,99944.78
2022-12-08T06:37:24.374Z,99970.91
2022-12-08T06:39:51.741Z,99928.19
2022-12-08T06:42:37.165Z,99959.44
2022-12-08T06:45:03.952Z,99934.06
2022-12-08T06:47:30.614Z,99945.56
2022-12-08T06:50:08.301Z,99954.94
2022-12-08T06:52:37.710Z,99970.78
2022-12-08T06:55:08.425Z,99969.31
2022-12-08T06:57:35.500Z,99977.91
2022-12-08T07:00:02.829Z,99959.81
2022-12-08T07:02:30.273Z,99974.78
2022-12-08T07:04:56.851Z,99959.94
2022-12-08T07:07:23.393Z,99962.69
2022-12-08T07:09:49.934Z,99953.91
2022-12-08T07:12:16.467Z,99931.63
2022-12-08T07:14:42.976Z,99948.09
2022-12-08T07:17:09.484Z,99934.31
2022-12-08T07:19:36.506Z,99956.69
2022-12-08T07:22:03.036Z,99987.09
2022-12-08T07:24:29.585Z,99990.44
2022-12-08T07:26:56.151Z,99942.25
2022-12-08T07:29:26.186Z,99952.03
2022-12-08T07:31:53.073Z,99955.34
2022-12-08T07:34:19.558Z,99985.00
2022-12-08T07:36:46.104Z,99996.16
2022-12-08T07:39:12.637Z,99948.50
2022-12-08T07:41:39.192Z,99985.69
2022-12-08T07:44:05.740Z,99993.56
2022-12-08T07:46:32.288Z,99988.00
2022-12-08T07:48:59.133Z,99968.34
2022-12-08T07:51:25.618Z,99951.25
2022-12-08T07:53:54.503Z,99953.94
2022-12-08T07:56:21.902Z,99980.94
2022-12-08T07:58:48.559Z,99986.56
2022-12-08T08:01:29.221Z,99985.25
2022-12-08T08:03:57.399Z,99984.59
2022-12-08T08:06:24.248Z,99969.31
2022-12-08T08:08:50.953Z,99956.84
2022-12-08T08:11:21.356Z,99975.91
2022-12-08T08:13:49.473Z,99981.19
2022-12-08T08:16:16.128Z,99978.88
2022-12-08T08:18:43.509Z,99977.13
2022-12-08T08:21:43.074Z,99964.31
2022-12-08T08:23:56.719Z,99981.25
2022-12-08T08:26:23.274Z,99983.72
2022-12-08T08:28:50.125Z,99988.25
2022-12-08T08:31:16.730Z,99989.41
2022-12-08T08:33:43.241Z,99993.03
2022-12-08T08:36:10.223Z,99984.06
2022-12-08T08:38:40.158Z,99987.78
2022-12-08T08:41:10.961Z,99986.72
2022-12-08T08:43:38.700Z,99985.22
2022-12-08T08:46:06.673Z,99997.91
2022-12-08T08:48:33.457Z,99991.09
2022-12-08T08:51:07.674Z,99992.50
2022-12-08T08:53:34.284Z,99957.56
2022-12-08T08:56:02.916Z,99995.22
2022-12-08T08:58:29.686Z,99995.53
2022-12-08T09:00:56.437Z,99993.97
2022-12-08T09:03:23.027Z,99959.41
2022-12-08T09:05:50.595Z,99999.84
2022-12-08T09:08:17.732Z,99978.97
2022-12-08T09:10:44.487Z,99978.38
2022-12-08T09:13:10.973Z,99972.91
2022-12-08T09:15:37.540Z,99993.47
2022-12-08T09:18:06.608Z,99971.22
2022-12-08T09:20:34.453Z,99968.38
2022-12-08T09:23:01.317Z,100005.53
2022-12-08T09:25:28.689Z,100007.13
2022-12-08T09:27:55.239Z,100019.53
2022-12-08T09:30:21.775Z,100013.84
2022-12-08T09:32:48.400Z,99975.31
2022-12-08T09:35:15.432Z,100003.09
2022-12-08T09:37:41.951Z,99990.59
2022-12-08T09:40:10.786Z,99961.72
2022-12-08T09:43:04.784Z,100007.41
2022-12-08T09:45:34.416Z,100007.59
2022-12-08T09:48:10.211Z,100005.31
2022-12-08T09:50:57.023Z,99991.69
2022-12-08T09:53:37.874Z,100007.38
2022-12-08T09:56:13.525Z,100007.97
2022-12-08T09:58:44.331Z,100001.09
2022-12-08T10:01:11.563Z,100000.34
2022-12-08T10:03:38.126Z,99958.56
2022-12-08T10:06:14.310Z,99993.31
2022-12-08T10:08:57.103Z,99962.53
2022-12-08T10:11:29.704Z,99971.94
2022-12-08T10:14:14.873Z,99990.25
2022-12-08T10:16:44.766Z,99975.31
2022-12-08T10:19:15.654Z,99997.84
2022-12-08T10:21:42.647Z,99991.41
2022-12-08T10:24:39.425Z,99984.56
2022-12-08T10:27:11.542Z,99974.88
2022-12-08T10:29:38.753Z,99955.06
2022-12-08T10:32:16.343Z,99990.94
2022-12-08T10:35:19.179Z,99992.53
2022-12-08T10:38:27.744Z,99980.88
2022-12-08T10:41:07.361Z,99983.31
2022-12-08T10:43:34.722Z,99981.22
2022-12-08T10:46:11.098Z,99982.44
2022-12-08T10:48:50.916Z,99972.63
2022-12-08T10:51:42.878Z,99982.97
2022-12-08T10:54:38.293Z,99977.72
2022-12-08T10:57:04.841Z,99947.22
2022-12-08T10:59:33.894Z,99947.03
2022-12-08T11:02:00.851Z,99962.16
2022-12-08T11:04:35.280Z,99968.03
2022-12-08T11:07:03.308Z,99957.81
2022-12-08T11:09:46.652Z,99977.16
2022-12-08T11:12:15.035Z,99967.63
2022-12-08T11:14:44.677Z,99984.91
2022-12-08T11:17:25.309Z,99969.25
2022-12-08T11:19:59.306Z,99974.16
2022-12-08T11:22:32.422Z,99975.91
2022-12-08T11:25:11.654Z,99949.94
2022-12-08T11:27:41.185Z,99962.38
2022-12-08T11:30:17.636Z,99963.44
2022-12-08T11:32:46.626Z,99955.91
2022-12-08T11:35:37.926Z,99931.97
2022-12-08T11:38:23.378Z,99954.06
2022-12-08T11:40:52.510Z,99951.72
2022-12-08T11:43:22.073Z,99962.69
2022-12-08T11:45:57.775Z,99941.81
2022-12-08T11:48:27.341Z,99960.25
2022-12-08T11:51:00.367Z,99965.06
2022-12-08T11:53:36.134Z,99970.47
2022-12-08T11:56:08.526Z,99931.41
2022-12-08T11:58:38.356Z,99958.19
2022-12-08T12:01:05.156Z,99947.50
2022-12-08T12:03:39.037Z,99914.88
2022-12-08T12:06:54.335Z,99953.28
2022-12-08T12:09:28.823Z,99960.09
2022-12-08T12:12:13.779Z,99952.25
2022-12-08T12:15:31.989Z,99952.88
2022-12-08T12:18:05.708Z,99965.16
2022-12-08T12:20:36.802Z,99951.31
2022-12-08T12:23:23.550Z,99965.69
2022-12-08T12:25:56.462Z,99943.63
2022-12-08T12:28:25.102Z,99928.69
2022-12-08T12:31:05.445Z,99908.13
2022-12-08T12:33:32.900Z,99916.47
2022-12-08T12:36:04.043Z,99934.56
2022-12-08T12:38:52.601Z,99914.72
2022-12-08T12:41:25.716Z,99946.88
2022-12-08T12:44:13.831Z,99953.53
2022-12-08T12:46:41.004Z,99945.31
2022-12-08T12:49:40.232Z,99949.59
2022-12-08T12:52:09.663Z,99944.66
2022-12-08T12:54:36.176Z,99946.44
2022-12-08T12:57:05.723Z,99944.97
2022-12-08T13:00:05.345Z,99919.41
2022-12-08T13:02:44.109Z,99944.72
2022-12-08T13:05:13.474Z,99941.56
2022-12-08T13:07:51.027Z,99938.19
2022-12-08T13:10:23.694Z,99938.16
2022-12-08T13:13:12.656Z,99939.13
2022-12-08T13:15:40.095Z,99938.34
2022-12-08T13:18:56.450Z,99938.22
2022-12-08T13:21:24.479Z,99941.81
2022-12-08T13:24:13.918Z,99936.16
2022-12-08T13:26:44.557Z,99940.25
2022-12-08T13:29:15.387Z,99931.53
2022-12-08T13:32:09.842Z,99917.56
2022-12-08T13:34:42.223Z,99938.78
2022-12-08T13:37:11.810Z,99929.38
2022-12-08T13:39:55.638Z,99935.22
2022-12-08T13:42:35.932Z,99932.56
2022-12-08T13:45:36.268Z,99930.25
2022-12-08T13:48:30.255Z,99930.81
2022-12-08T13:57:30.616Z,99905.38
2022-12-08T14:00:01.419Z,99943.34
2022-12-08T14:02:52.417Z,99939.84
2022-12-08T14:05:34.831Z,99929.72
2022-12-08T14:08:50.468Z,99944.66
2022-12-08T14:11:07.086Z,99938.03
2022-12-08T14:13:34.079Z,99942.91
2022-12-08T14:16:00.753Z,99933.94
2022-12-08T14:18:30.509Z,99948.78
2022-12-08T14:21:21.925Z,99914.47
2022-12-08T14:23:48.741Z,99926.25
2022-12-08T14:26:15.251Z,99927.31
2022-12-08T14:28:45.064Z,99927.25
2022-12-08T14:31:14.086Z,99902.91
2022-12-08T14:33:40.761Z,99928.63
2022-12-08T14:36:09.624Z,99925.75
2022-12-08T14:38:36.297Z,99931.91
2022-12-08T14:41:05.628Z,99932.28
2022-12-08T14:43:32.632Z,99910.75
2022-12-08T14:46:02.321Z,99939.78
2022-12-08T14:48:34.833Z,99937.81
2022-12-08T14:51:11.980Z,99943.59
2022-12-08T14:53:53.662Z,99945.22
2022-12-08T14:56:26.937Z,99919.13
2022-12-08T14:59:17.898Z,99947.31
2022-12-08T15:01:47.508Z,99947.94
2022-12-08T15:04:14.675Z,99946.31
2022-12-08T15:06:52.479Z,99939.97
2022-12-08T15:09:34.485Z,99950.91
2022-12-08T15:12:03.858Z,99953.28
2022-12-08T15:14:39.664Z,99911.25
2022-12-08T15:17:31.771Z,99949.78
2022-12-08T15:19:59.841Z,99944.31
2022-12-08T15:22:29.169Z,99915.72
2022-12-08T15:24:55.945Z,99958.34
2022-12-08T15:27:24.026Z,99950.53
2022-12-08T15:29:51.036Z,99920.13
2022-12-08T15:32:20.009Z,99955.06
2022-12-08T15:34:46.535Z,99912.00
2022-12-08T15:37:23.846Z,99937.19
2022-12-08T15:39:51.222Z,99954.25
2022-12-08T15:42:18.044Z,99958.38
2022-12-08T15:44:44.505Z,99952.41
2022-12-08T15:47:22.438Z,99940.69
2022-12-08T15:49:49.882Z,99934.44
2022-12-08T15:52:19.689Z,99955.06
2022-12-08T15:54:46.755Z,99957.94
2022-12-08T16:09:14.152Z,99944.34
2022-12-08T16:12:08.819Z,99953.47
2022-12-08T16:17:24.507Z,99955.53
2022-12-08T16:19:51.330Z,99959.31
2022-12-08T16:25:18.723Z,99921.38
2022-12-08T16:28:17.432Z,99925.75
2022-12-08T16:30:33.893Z,99937.41
2022-12-08T16:33:00.440Z,99947.19
2022-12-08T16:35:27.102Z,99918.00
2022-12-08T16:37:53.622Z,99946.66
2022-12-08T16:40:20.255Z,99943.69
2022-12-08T16:42:48.541Z,99952.94
2022-12-08T16:45:29.560Z,99955.19
2022-12-08T16:47:58.715Z,99951.19
2022-12-08T16:50:27.199Z,99953.50
2022-12-08T16:53:05.880Z,99951.09
2022-12-08T16:55:33.550Z,99952.34
2022-12-08T16:58:00.437Z,99892.75
2022-12-08T17:00:28.593Z,99949.59
2022-12-08T17:02:56.612Z,99933.41
2022-12-08T17:05:25.347Z,99949.94
2022-12-08T17:07:52.911Z,99951.81
2022-12-08T17:10:27.164Z,99935.09
2022-12-08T17:12:54.540Z,99922.88
2022-12-08T17:15:23.221Z,99938.03
2022-12-08T17:17:50.398Z,99960.38
2022-12-08T17:20:20.182Z,99953.47
2022-12-08T17:22:47.077Z,99952.03
2022-12-08T17:25:14.017Z,99954.13
2022-12-08T17:27:41.159Z,99960.16
2022-12-08T17:30:11.842Z,99950.44
2022-12-08T17:32:38.655Z,99954.22
2022-12-08T17:35:06.117Z,99951.69
2022-12-08T17:37:32.877Z,99945.38
2022-12-08T17:39:59.406Z,99939.06
2022-12-08T17:42:27.267Z,99942.69
2022-12-08T17:44:54.706Z,99946.47
2022-12-08T17:47:21.901Z,99942.91
2022-12-08T17:49:48.862Z,99951.09
2022-12-08T17:52:15.370Z,99950.16
2022-12-08T17:54:42.000Z,99919.31
2022-12-08T17:57:08.574Z,99952.25
2022-12-08T17:59:35.256Z,99950.19
2022-12-08T18:02:02.327Z,99927.44
2022-12-08T18:04:29.008Z,99942.13
2022-12-08T18:06:58.147Z,99894.59
2022-12-08T18:09:24.912Z,99946.53
2022-12-08T18:11:51.431Z,99943.84
2022-12-08T18:14:17.938Z,99930.75
2022-12-08T18:16:46.158Z,99943.78
2022-12-08T18:19:13.842Z,99939.97
2022-12-08T18:21:41.573Z,99922.09
2022-12-08T18:24:10.645Z,99935.66
2022-12-08T18:26:37.196Z,99934.66
2022-12-08T18:29:03.979Z,99929.38
2022-12-08T18:31:30.535Z,99936.28
2022-12-08T18:33:57.345Z,99865.78
2022-12-08T18:36:25.239Z,99927.75
2022-12-08T18:38:52.920Z,99907.16
2022-12-08T18:41:23.594Z,99898.13
2022-12-08T18:43:50.397Z,99937.19
2022-12-08T18:46:17.313Z,99927.78
2022-12-08T18:48:47.230Z,99934.19
2022-12-08T18:51:22.199Z,99908.34
2022-12-08T18:53:49.150Z,99937.03
2022-12-08T18:56:27.583Z,99937.25
2022-12-08T18:58:59.978Z,99946.94
2022-12-08T19:01:31.336Z,99944.97
2022-12-08T19:04:26.854Z,99951.84
2022-12-08T19:06:46.040Z,99961.97
2022-12-08T19:09:12.778Z,99967.41
2022-12-08T19:11:39.692Z,99953.50
2022-12-08T19:14:07.275Z,99956.06
2022-12-08T19:16:33.854Z,99955.63
2022-12-08T19:19:01.008Z,99928.78
2022-12-08T19:21:28.547Z,99953.41
2022-12-08T19:23:58.362Z,99923.25
2022-12-08T19:26:27.424Z,99946.78
2022-12-08T19:28:54.197Z,99913.50
2022-12-08T19:31:21.123Z,99941.75
2022-12-08T19:33:48.037Z,99906.22
2022-12-08T19:36:18.336Z,99935.41
2022-12-08T19:39:03.919Z,99908.06
2022-12-08T19:41:50.013Z,99917.28
2022-12-08T19:44:33.980Z,99951.94
2022-12-08T19:47:01.679Z,99922.81
2022-12-08T19:49:28.668Z,99917.81
2022-12-08T19:51:55.697Z,99949.94
2022-12-08T19:54:22.817Z,99912.16
2022-12-08T19:56:49.776Z,99943.78
2022-12-08T19:59:16.635Z,99918.84
2022-12-08T20:01:44.146Z,99914.38
2022-12-08T20:04:15.306Z,99956.53
2022-12-08T20:06:42.193Z,99934.56
2022-12-08T20:09:10.421Z,99954.69
2022-12-08T20:11:37.648Z,99960.06
2022-12-08T20:14:05.707Z,99946.81
2022-12-08T20:16:32.472Z,99961.22
2022-12-08T20:18:59.524Z,99954.31
2022-12-08T20:21:26.357Z,99925.06
2022-12-08T20:23:52.996Z,99967.53
2022-12-08T20:26:21.920Z,99965.84
2022-12-08T20:28:49.068Z,99921.84
2022-12-08T20:31:20.288Z,99967.28
2022-12-08T20:33:47.269Z,99970.75
2022-12-08T20:36:18.563Z,99961.19
2022-12-08T20:38:46.564Z,99929.28
2022-12-08T20:41:15.908Z,99965.47
2022-12-08T20:43:47.090Z,99957.94
2022-12-08T20:46:16.539Z,99969.19
2022-12-08T20:48:43.881Z,99973.78
2022-12-08T20:51:18.442Z,99972.34
2022-12-08T20:53:45.825Z,99974.63
2022-12-08T20:56:17.933Z,99973.84
2022-12-08T20:58:45.141Z,99978.41
2022-12-08T21:01:14.948Z,99974.00
2022-12-08T21:03:42.316Z,99977.59
2022-12-08T21:06:09.343Z,99972.69
2022-12-08T21:08:36.960Z,99947.19
2022-12-08T21:11:04.459Z,99936.13
2022-12-08T21:13:31.469Z,99976.69
2022-12-08T21:15:58.452Z,99952.84
2022-12-08T21:18:25.706Z,99956.81
2022-12-08T21:20:53.204Z,99943.84
2022-12-08T21:23:19.899Z,99951.75
2022-12-08T21:25:47.398Z,99971.50
2022-12-08T21:28:14.237Z,99968.69
2022-12-08T21:30:41.486Z,99956.88
2022-12-08T21:33:08.269Z,99982.22
2022-12-08T21:35:34.898Z,99960.19
2022-12-08T21:38:01.566Z,99963.59
2022-12-08T21:40:28.284Z,99977.22
2022-12-08T21:42:54.879Z,99956.84
2022-12-08T21:45:21.974Z,99978.63
2022-12-08T21:47:50.009Z,99974.50
2022-12-08T21:50:17.255Z,99971.16
2022-12-08T21:52:46.056Z,99976.94
2022-12-08T21:55:14.078Z,99974.69
2022-12-08T21:57:40.983Z,99976.84
2022-12-08T22:00:08.718Z,99971.50
2022-12-08T22:02:35.767Z,99979.56
2022-12-08T22:05:02.804Z,99978.38
2022-12-08T22:07:29.344Z,99966.44
2022-12-08T22:09:56.038Z,99947.03
2022-12-08T22:12:22.960Z,99974.41
2022-12-08T22:14:51.011Z,99976.00
2022-12-08T22:17:18.687Z,99972.97
2022-12-08T22:19:45.389Z,99947.78
2022-12-08T22:22:12.147Z,99971.50
2022-12-08T22:24:38.679Z,99974.03
2022-12-08T22:27:05.275Z,99972.16
2022-12-08T22:29:31.954Z,99976.09
2022-12-08T22:31:58.456Z,99973.28
2022-12-08T22:34:24.937Z,99973.06
2022-12-08T22:36:51.598Z,99950.94
2022-12-08T22:39:18.404Z,99972.97
2022-12-08T22:41:44.878Z,99966.63
2022-12-08T22:44:11.984Z,99945.78
2022-12-08T22:46:38.621Z,99965.84
2022-12-08T22:49:05.248Z,99915.97
2022-12-08T22:51:31.757Z,99978.94
2022-12-08T22:53:58.254Z,99971.59
2022-12-08T22:56:25.071Z,99969.97
2022-12-08T22:58:54.782Z,99963.41
2022-12-08T23:01:22.566Z,99965.09
2022-12-08T23:03:49.400Z,99933.91
2022-12-08T23:06:16.337Z,99934.31
2022-12-08T23:08:44.020Z,99955.50
2022-12-08T23:11:11.134Z,99965.00
2022-12-08T23:13:39.386Z,99962.72
2022-12-08T23:16:09.855Z,99962.41
2022-12-08T23:18:37.481Z,99958.69
2022-12-08T23:21:06.398Z,99965.53
2022-12-08T23:23:33.026Z,99958.50
2022-12-08T23:25:59.690Z,99947.38
2022-12-08T23:28:26.341Z,99959.66
2022-12-08T23:30:52.991Z,99961.72
2022-12-08T23:33:19.735Z,99956.78
2022-12-08T23:35:46.343Z,99958.03
2022-12-08T23:38:13.159Z,99964.69
2022-12-08T23:40:39.684Z,99960.59
2022-12-08T23:43:06.240Z,99954.66
2022-12-08T23:45:32.980Z,99935.16
2022-12-08T23:47:59.609Z,99939.59
2022-12-08T23:50:26.645Z,99921.25
2022-12-08T23:52:53.135Z,99960.13
2022-12-08T23:55:19.969Z,99958.75
2022-12-08T23:57:46.475Z,99931.16
